sensor_id;sensor_type;location;lat;lon;timestamp;pressure;altitude;pressure_sealevel;temperature;humidity
54172;BME280;40076;52.354;4.970;2024-03-17T00:00:47;102359.84;;;7.45;100.00
54172;BME280;40076;52.354;4.970;2024-03-17T00:03:13;102355.53;;;7.44;100.00
54172;BME280;40076;52.354;4.970;2024-03-17T00:05:40;102359.84;;;7.45;100.00
54172;BME280;40076;52.354;4.970;2024-03-17T00:08:06;102354.47;;;7.45;100.00
54172;BME280;40076;52.354;4.970;2024-03-17T00:10:32;102347.19;;;7.46;100.00
54172;BME280;40076;52.354;4.970;2024-03-17T00:12:57;102349.88;;;7.46;100.00
54172;BME280;40076;52.354;4.970;2024-03-17T00:15:25;102359.59;;;7.47;100.00
54172;BME280;40076;52.354;4.970;2024-03-17T00:17:51;102353.09;;;7.48;100.00
54172;BME280;40076;52.354;4.970;2024-03-17T00:20:16;102346.94;;;7.47;100.00
54172;BME280;40076;52.354;4.970;2024-03-17T00:22:49;102350.69;;;7.46;100.00
54172;BME280;40076;52.354;4.970;2024-03-17T00:25:16;102350.69;;;7.46;100.00
54172;BME280;40076;52.354;4.970;2024-03-17T00:27:45;102348.81;;;7.47;100.00
54172;BME280;40076;52.354;4.970;2024-03-17T00:30:13;102349.88;;;7.46;100.00
54172;BME280;40076;52.354;4.970;2024-03-17T00:32:39;102347.19;;;7.46;100.00
54172;BME280;40076;52.354;4.970;2024-03-17T00:35:06;102342.88;;;7.45;100.00
54172;BME280;40076;52.354;4.970;2024-03-17T00:37:32;102346.66;;;7.44;100.00
54172;BME280;40076;52.354;4.970;2024-03-17T00:39:58;102339.63;;;7.43;100.00
54172;BME280;40076;52.354;4.970;2024-03-17T00:42:24;102334.50;;;7.41;100.00
54172;BME280;40076;52.354;4.970;2024-03-17T00:44:49;102325.63;;;7.41;100.00
54172;BME280;40076;52.354;4.970;2024-03-17T00:47:14;102340.97;;;7.40;100.00
54172;BME280;40076;52.354;4.970;2024-03-17T00:49:42;102332.38;;;7.38;100.00
54172;BME280;40076;52.354;4.970;2024-03-17T00:52:16;102333.44;;;7.37;100.00
54172;BME280;40076;52.354;4.970;2024-03-17T00:54:41;102329.38;;;7.34;100.00
54172;BME280;40076;52.354;4.970;2024-03-17T00:57:07;102323.19;;;7.34;100.00
54172;BME280;40076;52.354;4.970;2024-03-17T00:59:32;102323.44;;;7.32;100.00
54172;BME280;40076;52.354;4.970;2024-03-17T01:01:58;102326.13;;;7.32;100.00
54172;BME280;40076;52.354;4.970;2024-03-17T01:04:23;102330.44;;;7.33;100.00
54172;BME280;40076;52.354;4.970;2024-03-17T01:06:49;102321.31;;;7.34;100.00
54172;BME280;40076;52.354;4.970;2024-03-17T01:09:17;102319.44;;;7.35;100.00
54172;BME280;40076;52.354;4.970;2024-03-17T01:11:42;102317.56;;;7.35;100.00
54172;BME280;40076;52.354;4.970;2024-03-17T01:14:08;102312.19;;;7.35;100.00
54172;BME280;40076;52.354;4.970;2024-03-17T01:16:34;102307.59;;;7.36;100.00
54172;BME280;40076;52.354;4.970;2024-03-17T01:18:59;102305.72;;;7.36;100.00
54172;BME280;40076;52.354;4.970;2024-03-17T01:21:24;102296.84;;;7.36;100.00
54172;BME280;40076;52.354;4.970;2024-03-17T01:23:50;102302.22;;;7.36;100.00
54172;BME280;40076;52.354;4.970;2024-03-17T01:26:15;102303.84;;;7.37;100.00
54172;BME280;40076;52.354;4.970;2024-03-17T01:28:41;102301.41;;;7.35;100.00
54172;BME280;40076;52.354;4.970;2024-03-17T01:31:07;102297.91;;;7.35;100.00
54172;BME280;40076;52.354;4.970;2024-03-17T01:33:32;102298.97;;;7.34;100.00
54172;BME280;40076;52.354;4.970;2024-03-17T01:35:58;102286.34;;;7.34;100.00
54172;BME280;40076;52.354;4.970;2024-03-17T01:38:23;102290.66;;;7.35;100.00
54172;BME280;40076;52.354;4.970;2024-03-17T01:40:48;102289.84;;;7.35;100.00
54172;BME280;40076;52.354;4.970;2024-03-17T01:43:13;102273.72;;;7.35;100.00
54172;BME280;40076;52.354;4.970;2024-03-17T01:45:39;102283.66;;;7.34;100.00
54172;BME280;40076;52.354;4.970;2024-03-17T01:48:10;102275.59;;;7.34;100.00
54172;BME280;40076;52.354;4.970;2024-03-17T01:50:39;102272.91;;;7.34;100.00
54172;BME280;40076;52.354;4.970;2024-03-17T01:53:05;102272.91;;;7.34;100.00
54172;BME280;40076;52.354;4.970;2024-03-17T01:55:37;102265.91;;;7.33;100.00
54172;BME280;40076;52.354;4.970;2024-03-17T01:58:03;102268.88;;;7.32;100.00
54172;BME280;40076;52.354;4.970;2024-03-17T02:00:29;102264.56;;;7.31;100.00
54172;BME280;40076;52.354;4.970;2024-03-17T02:02:56;102262.41;;;7.33;100.00
54172;BME280;40076;52.354;4.970;2024-03-17T02:05:22;102264.84;;;7.34;100.00
54172;BME280;40076;52.354;4.970;2024-03-17T02:07:48;102259.22;;;7.36;100.00
54172;BME280;40076;52.354;4.970;2024-03-17T02:10:13;102251.13;;;7.36;100.00
54172;BME280;40076;52.354;4.970;2024-03-17T02:12:39;102253.00;;;7.35;100.00
54172;BME280;40076;52.354;4.970;2024-03-17T02:15:06;102251.13;;;7.36;100.00
54172;BME280;40076;52.354;4.970;2024-03-17T02:17:35;102247.38;;;7.37;100.00
54172;BME280;40076;52.354;4.970;2024-03-17T02:20:03;102243.63;;;7.38;100.00
54172;BME280;40076;52.354;4.970;2024-03-17T02:22:34;102230.19;;;7.38;100.00
54172;BME280;40076;52.354;4.970;2024-03-17T02:24:59;102233.69;;;7.39;100.00
54172;BME280;40076;52.354;4.970;2024-03-17T02:27:25;102239.88;;;7.39;100.00
54172;BME280;40076;52.354;4.970;2024-03-17T02:29:50;102239.59;;;7.41;100.00
54172;BME280;40076;52.354;4.970;2024-03-17T02:32:15;102236.88;;;7.41;100.00
54172;BME280;40076;52.354;4.970;2024-03-17T02:34:41;102234.75;;;7.43;100.00
54172;BME280;40076;52.354;4.970;2024-03-17T02:37:06;102229.63;;;7.41;100.00
54172;BME280;40076;52.354;4.970;2024-03-17T02:39:34;102228.56;;;7.42;100.00
54172;BME280;40076;52.354;4.970;2024-03-17T02:42:04;102222.94;;;7.44;100.00
54172;BME280;40076;52.354;4.970;2024-03-17T02:44:37;102223.47;;;7.46;100.00
54172;BME280;40076;52.354;4.970;2024-03-17T02:47:04;102215.69;;;7.44;100.00
54172;BME280;40076;52.354;4.970;2024-03-17T02:49:31;102219.44;;;7.48;100.00
54172;BME280;40076;52.354;4.970;2024-03-17T02:52:07;102218.13;;;7.51;100.00
54172;BME280;40076;52.354;4.970;2024-03-17T02:54:34;102219.72;;;7.52;100.00
54172;BME280;40076;52.354;4.970;2024-03-17T02:57:00;102219.47;;;7.53;100.00
54172;BME280;40076;52.354;4.970;2024-03-17T02:59:26;102213.84;;;7.55;100.00
54172;BME280;40076;52.354;4.970;2024-03-17T03:01:52;102217.31;;;7.55;100.00
54172;BME280;40076;52.354;4.970;2024-03-17T03:04:17;102225.38;;;7.55;100.00
54172;BME280;40076;52.354;4.970;2024-03-17T03:06:43;102217.31;;;7.55;100.00
54172;BME280;40076;52.354;4.970;2024-03-17T03:09:08;102210.84;;;7.56;100.00
54172;BME280;40076;52.354;4.970;2024-03-17T03:11:39;102211.66;;;7.57;100.00
54172;BME280;40076;52.354;4.970;2024-03-17T03:14:05;102214.91;;;7.59;100.00
54172;BME280;40076;52.354;4.970;2024-03-17T03:16:30;102219.22;;;7.60;100.00
54172;BME280;40076;52.354;4.970;2024-03-17T03:18:55;102208.47;;;7.60;100.00
54172;BME280;40076;52.354;4.970;2024-03-17T03:21:21;102216.28;;;7.61;100.00
54172;BME280;40076;52.354;4.970;2024-03-17T03:23:47;102218.69;;;7.63;100.00
54172;BME280;40076;52.354;4.970;2024-03-17T03:26:12;102213.03;;;7.64;100.00
54172;BME280;40076;52.354;4.970;2024-03-17T03:28:37;102209.28;;;7.65;100.00
54172;BME280;40076;52.354;4.970;2024-03-17T03:31:04;102211.97;;;7.65;100.00
54172;BME280;40076;52.354;4.970;2024-03-17T03:33:29;102205.53;;;7.66;100.00
54172;BME280;40076;52.354;4.970;2024-03-17T03:35:54;102202.81;;;7.66;100.00
54172;BME280;40076;52.354;4.970;2024-03-17T03:38:20;102203.91;;;7.65;100.00
54172;BME280;40076;52.354;4.970;2024-03-17T03:40:47;102202.81;;;7.66;100.00
54172;BME280;40076;52.354;4.970;2024-03-17T03:43:13;102199.06;;;7.67;100.00
54172;BME280;40076;52.354;4.970;2024-03-17T03:45:39;102199.06;;;7.67;100.00
54172;BME280;40076;52.354;4.970;2024-03-17T03:48:05;102188.31;;;7.67;100.00
54172;BME280;40076;52.354;4.970;2024-03-17T03:50:31;102184.81;;;7.67;100.00
54172;BME280;40076;52.354;4.970;2024-03-17T03:52:57;102184.00;;;7.66;100.00
54172;BME280;40076;52.354;4.970;2024-03-17T03:55:22;102181.84;;;7.68;100.00
54172;BME280;40076;52.354;4.970;2024-03-17T03:57:49;102167.59;;;7.68;100.00
54172;BME280;40076;52.354;4.970;2024-03-17T04:00:18;102160.34;;;7.68;100.00
54172;BME280;40076;52.354;4.970;2024-03-17T04:02:50;102153.88;;;7.69;100.00
54172;BME280;40076;52.354;4.970;2024-03-17T04:05:17;102145.81;;;7.69;100.00
54172;BME280;40076;52.354;4.970;2024-03-17T04:07:43;102135.84;;;7.70;100.00
54172;BME280;40076;52.354;4.970;2024-03-17T04:10:12;102142.03;;;7.70;100.00
54172;BME280;40076;52.354;4.970;2024-03-17T04:12:37;102141.50;;;7.68;100.00
54172;BME280;40076;52.354;4.970;2024-03-17T04:15:03;102138.53;;;7.70;100.00
54172;BME280;40076;52.354;4.970;2024-03-17T04:17:31;102137.44;;;7.71;100.00
54172;BME280;40076;52.354;4.970;2024-03-17T04:19:57;102132.06;;;7.71;100.00
54172;BME280;40076;52.354;4.970;2024-03-17T04:22:23;102127.78;;;7.70;100.00
54172;BME280;40076;52.354;4.970;2024-03-17T04:24:51;102127.25;;;7.68;100.00
54172;BME280;40076;52.354;4.970;2024-03-17T04:27:28;102121.59;;;7.69;100.00
54172;BME280;40076;52.354;4.970;2024-03-17T04:29:55;102127.78;;;7.70;100.00
54172;BME280;40076;52.354;4.970;2024-03-17T04:32:21;102114.59;;;7.68;100.00
54172;BME280;40076;52.354;4.970;2024-03-17T04:34:47;102122.91;;;7.72;100.00
54172;BME280;40076;52.354;4.970;2024-03-17T04:37:13;102118.34;;;7.72;100.00
54172;BME280;40076;52.354;4.970;2024-03-17T04:39:42;102126.16;;;7.74;100.00
54172;BME280;40076;52.354;4.970;2024-03-17T04:42:09;102130.72;;;7.73;100.00
54172;BME280;40076;52.354;4.970;2024-03-17T04:44:35;102133.97;;;7.75;100.00
54172;BME280;40076;52.354;4.970;2024-03-17T04:47:01;102140.16;;;7.76;100.00
54172;BME280;40076;52.354;4.970;2024-03-17T04:49:27;102135.84;;;7.75;100.00
54172;BME280;40076;52.354;4.970;2024-03-17T04:51:53;102131.28;;;7.75;100.00
54172;BME280;40076;52.354;4.970;2024-03-17T04:54:18;102135.59;;;7.77;100.00
54172;BME280;40076;52.354;4.970;2024-03-17T04:56:43;102131.03;;;7.77;100.00
54172;BME280;40076;52.354;4.970;2024-03-17T04:59:09;102124.00;;;7.76;100.00
54172;BME280;40076;52.354;4.970;2024-03-17T05:01:34;102126.72;;;7.76;100.00
54172;BME280;40076;52.354;4.970;2024-03-17T05:04:03;102117.03;;;7.75;100.00
54172;BME280;40076;52.354;4.970;2024-03-17T05:06:28;102127.78;;;7.75;100.00
54172;BME280;40076;52.354;4.970;2024-03-17T05:08:54;102119.16;;;7.73;100.00
54172;BME280;40076;52.354;4.970;2024-03-17T05:11:19;102122.66;;;7.73;100.00
54172;BME280;40076;52.354;4.970;2024-03-17T05:13:45;102122.66;;;7.73;100.00
54172;BME280;40076;52.354;4.970;2024-03-17T05:16:10;102126.16;;;7.74;100.00
54172;BME280;40076;52.354;4.970;2024-03-17T05:18:36;102110.28;;;7.72;100.00
54172;BME280;40076;52.354;4.970;2024-03-17T05:21:05;102107.59;;;7.72;100.00
54172;BME280;40076;52.354;4.970;2024-03-17T05:23:34;102109.22;;;7.73;100.00
54172;BME280;40076;52.354;4.970;2024-03-17T05:26:00;102113.78;;;7.73;100.00
54172;BME280;40076;52.354;4.970;2024-03-17T05:28:26;102111.09;;;7.73;100.00
54172;BME280;40076;52.354;4.970;2024-03-17T05:30:52;102113.78;;;7.73;100.00
54172;BME280;40076;52.354;4.970;2024-03-17T05:33:18;102112.16;;;7.72;100.00
54172;BME280;40076;52.354;4.970;2024-03-17T05:35:55;102114.03;;;7.71;100.00
54172;BME280;40076;52.354;4.970;2024-03-17T05:38:22;102118.63;;;7.71;100.00
54172;BME280;40076;52.354;4.970;2024-03-17T05:40:55;102114.34;;;7.70;100.00
54172;BME280;40076;52.354;4.970;2024-03-17T05:43:22;102120.22;;;7.72;100.00
54172;BME280;40076;52.354;4.970;2024-03-17T05:45:50;102124.81;;;7.71;100.00
54172;BME280;40076;52.354;4.970;2024-03-17T05:48:15;102131.81;;;7.72;100.00
54172;BME280;40076;52.354;4.970;2024-03-17T05:50:40;102126.16;;;7.74;100.00
54172;BME280;40076;52.354;4.970;2024-03-17T05:53:06;102117.53;;;7.72;100.00
54172;BME280;40076;52.354;4.970;2024-03-17T05:55:35;102119.16;;;7.73;100.00
54172;BME280;40076;52.354;4.970;2024-03-17T05:58:00;102119.97;;;7.73;100.00
54172;BME280;40076;52.354;4.970;2024-03-17T06:00:26;102118.09;;;7.74;100.00
54172;BME280;40076;52.354;4.970;2024-03-17T06:02:52;102122.41;;;7.75;100.00
54172;BME280;40076;52.354;4.970;2024-03-17T06:05:17;102120.53;;;7.75;100.00
54172;BME280;40076;52.354;4.970;2024-03-17T06:07:42;102119.44;;;7.77;100.00
54172;BME280;40076;52.354;4.970;2024-03-17T06:10:08;102129.13;;;7.78;100.00
54172;BME280;40076;52.354;4.970;2024-03-17T06:12:33;102133.41;;;7.79;100.00
54172;BME280;40076;52.354;4.970;2024-03-17T06:14:59;102126.44;;;7.78;100.00
54172;BME280;40076;52.354;4.970;2024-03-17T06:17:24;102124.28;;;7.80;100.00
54172;BME280;40076;52.354;4.970;2024-03-17T06:19:51;102123.19;;;7.81;100.00
54172;BME280;40076;52.354;4.970;2024-03-17T06:22:17;102127.50;;;7.82;100.00
54172;BME280;40076;52.354;4.970;2024-03-17T06:24:42;102125.63;;;7.82;100.00
54172;BME280;40076;52.354;4.970;2024-03-17T06:27:07;102124.56;;;7.83;100.00
54172;BME280;40076;52.354;4.970;2024-03-17T06:29:32;102120.25;;;7.82;100.00
54172;BME280;40076;52.354;4.970;2024-03-17T06:31:58;102119.97;;;7.84;100.00
54172;BME280;40076;52.354;4.970;2024-03-17T06:34:23;102120.78;;;7.84;100.00
54172;BME280;40076;52.354;4.970;2024-03-17T06:36:48;102122.13;;;7.87;100.00
54172;BME280;40076;52.354;4.970;2024-03-17T06:39:14;102121.06;;;7.88;100.00
54172;BME280;40076;52.354;4.970;2024-03-17T06:41:42;102119.97;;;7.89;100.00
54172;BME280;40076;52.354;4.970;2024-03-17T06:44:07;102119.97;;;7.89;100.00
54172;BME280;40076;52.354;4.970;2024-03-17T06:46:33;102114.59;;;7.89;100.00
54172;BME280;40076;52.354;4.970;2024-03-17T06:48:58;102116.50;;;7.93;100.00
54172;BME280;40076;52.354;4.970;2024-03-17T06:51:24;102112.19;;;7.92;100.00
54172;BME280;40076;52.354;4.970;2024-03-17T06:53:50;102112.44;;;7.96;100.00
54172;BME280;40076;52.354;4.970;2024-03-17T06:56:18;102109.75;;;7.96;100.00
54172;BME280;40076;52.354;4.970;2024-03-17T06:58:43;102111.09;;;7.98;100.00
54172;BME280;40076;52.354;4.970;2024-03-17T07:01:09;102111.91;;;7.99;100.00
54172;BME280;40076;52.354;4.970;2024-03-17T07:03:35;102121.84;;;8.03;100.00
54172;BME280;40076;52.354;4.970;2024-03-17T07:06:01;102121.84;;;8.03;100.00
54172;BME280;40076;52.354;4.970;2024-03-17T07:08:31;102116.22;;;8.05;100.00
54172;BME280;40076;52.354;4.970;2024-03-17T07:11:06;102121.31;;;8.06;100.00
54172;BME280;40076;52.354;4.970;2024-03-17T07:13:38;102116.50;;;8.08;100.00
54172;BME280;40076;52.354;4.970;2024-03-17T07:16:05;102125.88;;;8.11;100.00
54172;BME280;40076;52.354;4.970;2024-03-17T07:18:31;102130.19;;;8.12;100.00
54172;BME280;40076;52.354;4.970;2024-03-17T07:21:00;102118.91;;;8.15;100.00
54172;BME280;40076;52.354;4.970;2024-03-17T07:23:26;102124.81;;;8.17;100.00
54172;BME280;40076;52.354;4.970;2024-03-17T07:25:55;102120.22;;;8.18;100.00
54172;BME280;40076;52.354;4.970;2024-03-17T07:28:21;102113.50;;;8.20;100.00
54172;BME280;40076;52.354;4.970;2024-03-17T07:30:51;102107.84;;;8.22;100.00
54172;BME280;40076;52.354;4.970;2024-03-17T07:33:16;102107.59;;;8.23;100.00
54172;BME280;40076;52.354;4.970;2024-03-17T07:35:53;102107.28;;;8.25;100.00
54172;BME280;40076;52.354;4.970;2024-03-17T07:38:20;102100.81;;;8.26;100.00
54172;BME280;40076;52.354;4.970;2024-03-17T07:41:04;102091.94;;;8.30;100.00
54172;BME280;40076;52.354;4.970;2024-03-17T07:43:35;102101.91;;;8.30;100.00
54172;BME280;40076;52.354;4.970;2024-03-17T07:46:05;102099.22;;;8.35;100.00
54172;BME280;40076;52.354;4.970;2024-03-17T07:48:32;102101.91;;;8.40;100.00
54172;BME280;40076;52.354;4.970;2024-03-17T07:50:59;102099.75;;;8.42;100.00
54172;BME280;40076;52.354;4.970;2024-03-17T07:53:37;102107.03;;;8.46;100.00
54172;BME280;40076;52.354;4.970;2024-03-17T07:56:09;102101.66;;;8.46;100.00
54172;BME280;40076;52.354;4.970;2024-03-17T07:58:37;102093.53;;;8.51;100.00
54172;BME280;40076;52.354;4.970;2024-03-17T08:01:07;102095.66;;;8.55;100.00
54172;BME280;40076;52.354;4.970;2024-03-17T08:03:35;102097.00;;;8.57;100.00
54172;BME280;40076;52.354;4.970;2024-03-17T08:06:02;102105.06;;;8.62;100.00
54172;BME280;40076;52.354;4.970;2024-03-17T08:08:28;102101.03;;;8.65;100.00
54172;BME280;40076;52.354;4.970;2024-03-17T08:10:54;102104.81;;;8.69;100.00
54172;BME280;40076;52.354;4.970;2024-03-17T08:13:20;102108.81;;;8.71;100.00
54172;BME280;40076;52.354;4.970;2024-03-17T08:15:55;102115.56;;;8.74;100.00
54172;BME280;40076;52.354;4.970;2024-03-17T08:18:20;102113.41;;;8.76;100.00
54172;BME280;40076;52.354;4.970;2024-03-17T08:20:46;102109.06;;;8.80;100.00
54172;BME280;40076;52.354;4.970;2024-03-17T08:23:14;102110.41;;;8.82;100.00
54172;BME280;40076;52.354;4.970;2024-03-17T08:25:39;102108.75;;;8.86;100.00
54172;BME280;40076;52.354;4.970;2024-03-17T08:28:07;102114.41;;;8.90;100.00
54172;BME280;40076;52.354;4.970;2024-03-17T08:30:33;102117.91;;;8.96;100.00
54172;BME280;40076;52.354;4.970;2024-03-17T08:32:59;102110.06;;;8.99;100.00
54172;BME280;40076;52.354;4.970;2024-03-17T08:35:28;102106.53;;;9.04;100.00
54172;BME280;40076;52.354;4.970;2024-03-17T08:37:53;102117.59;;;9.07;100.00
54172;BME280;40076;52.354;4.970;2024-03-17T08:40:23;102107.03;;;9.11;100.00
54172;BME280;40076;52.354;4.970;2024-03-17T08:42:49;102110.00;;;9.14;100.00
54172;BME280;40076;52.354;4.970;2024-03-17T08:45:14;102106.72;;;9.17;100.00
54172;BME280;40076;52.354;4.970;2024-03-17T08:47:40;102110.50;;;9.21;100.00
54172;BME280;40076;52.354;4.970;2024-03-17T08:50:05;102105.88;;;9.27;100.00
54172;BME280;40076;52.354;4.970;2024-03-17T08:52:33;102102.09;;;9.28;100.00
54172;BME280;40076;52.354;4.970;2024-03-17T08:54:59;102102.06;;;9.33;100.00
54172;BME280;40076;52.354;4.970;2024-03-17T08:57:25;102109.59;;;9.36;100.00
54172;BME280;40076;52.354;4.970;2024-03-17T08:59:50;102102.81;;;9.39;100.00
54172;BME280;40076;52.354;4.970;2024-03-17T09:02:19;102104.97;;;9.42;100.00
54172;BME280;40076;52.354;4.970;2024-03-17T09:04:46;102100.91;;;9.44;100.00
54172;BME280;40076;52.354;4.970;2024-03-17T09:07:20;102104.66;;;9.48;100.00
54172;BME280;40076;52.354;4.970;2024-03-17T09:09:47;102098.97;;;9.50;100.00
54172;BME280;40076;52.354;4.970;2024-03-17T09:12:13;102099.75;;;9.55;100.00
54172;BME280;40076;52.354;4.970;2024-03-17T09:14:38;102098.91;;;9.60;100.00
54172;BME280;40076;52.354;4.970;2024-03-17T09:17:06;102096.19;;;9.65;100.00
54172;BME280;40076;52.354;4.970;2024-03-17T09:19:39;102090.72;;;9.70;100.00
54172;BME280;40076;52.354;4.970;2024-03-17T09:22:04;102089.09;;;9.74;100.00
54172;BME280;40076;52.354;4.970;2024-03-17T09:24:32;102091.22;;;9.77;100.00
54172;BME280;40076;52.354;4.970;2024-03-17T09:26:57;102080.66;;;9.81;100.00
54172;BME280;40076;52.354;4.970;2024-03-17T09:29:22;102082.81;;;9.84;100.00
54172;BME280;40076;52.354;4.970;2024-03-17T09:31:49;102078.72;;;9.86;100.00
54172;BME280;40076;52.354;4.970;2024-03-17T09:34:14;102078.69;;;9.91;100.00
54172;BME280;40076;52.354;4.970;2024-03-17T09:36:40;102079.72;;;9.95;100.00
54172;BME280;40076;52.354;4.970;2024-03-17T09:39:05;102088.84;;;9.99;100.00
54172;BME280;40076;52.354;4.970;2024-03-17T09:41:31;102081.81;;;10.03;100.00
54172;BME280;40076;52.354;4.970;2024-03-17T09:43:57;102085.53;;;10.07;100.00
54172;BME280;40076;52.354;4.970;2024-03-17T09:46:24;102083.09;;;10.11;100.00
54172;BME280;40076;52.354;4.970;2024-03-17T09:48:51;102080.31;;;10.16;100.00
54172;BME280;40076;52.354;4.970;2024-03-17T09:51:22;102083.31;;;10.20;100.00
54172;BME280;40076;52.354;4.970;2024-03-17T09:53:47;102074.63;;;10.23;100.00
54172;BME280;40076;52.354;4.970;2024-03-17T09:56:15;102078.66;;;10.25;100.00
54172;BME280;40076;52.354;4.970;2024-03-17T09:58:42;102068.09;;;10.29;100.00
54172;BME280;40076;52.354;4.970;2024-03-17T10:01:07;102062.09;;;10.32;100.00
54172;BME280;40076;52.354;4.970;2024-03-17T10:03:49;102069.06;;;10.38;100.00
54172;BME280;40076;52.354;4.970;2024-03-17T10:06:28;102062.56;;;10.39;100.00
54172;BME280;40076;52.354;4.970;2024-03-17T10:08:56;102063.38;;;10.39;100.00
54172;BME280;40076;52.354;4.970;2024-03-17T10:11:23;102060.91;;;10.43;100.00
54172;BME280;40076;52.354;4.970;2024-03-17T10:14:01;102066.25;;;10.48;100.00
54172;BME280;40076;52.354;4.970;2024-03-17T10:16:29;102057.56;;;10.51;100.00
54172;BME280;40076;52.354;4.970;2024-03-17T10:21:37;102057.44;;;10.61;100.00
54172;BME280;40076;52.354;4.970;2024-03-17T10:24:25;102043.88;;;10.66;100.00
54172;BME280;40076;52.354;4.970;2024-03-17T10:26:52;102051.09;;;10.71;100.00
54172;BME280;40076;52.354;4.970;2024-03-17T10:31:54;102048.28;;;10.81;100.00
54172;BME280;40076;52.354;4.970;2024-03-17T10:34:21;102049.28;;;10.85;100.00
54172;BME280;40076;52.354;4.970;2024-03-17T10:36:50;102050.06;;;10.91;100.00
54172;BME280;40076;52.354;4.970;2024-03-17T10:39:23;102046.47;;;10.95;100.00
54172;BME280;40076;52.354;4.970;2024-03-17T10:42:02;102040.75;;;10.97;100.00
54172;BME280;40076;52.354;4.970;2024-03-17T10:44:29;102039.06;;;11.01;100.00
54172;BME280;40076;52.354;4.970;2024-03-17T10:46:56;102040.91;;;11.05;100.00
54172;BME280;40076;52.354;4.970;2024-03-17T10:49:27;102034.63;;;11.10;100.00
54172;BME280;40076;52.354;4.970;2024-03-17T10:51:58;102038.66;;;11.12;100.00
54172;BME280;40076;52.354;4.970;2024-03-17T10:54:25;102034.25;;;11.16;100.00
54172;BME280;40076;52.354;4.970;2024-03-17T10:56:54;102029.06;;;11.20;100.00
54172;BME280;40076;52.354;4.970;2024-03-17T10:59:22;102019.25;;;11.24;100.00
54172;BME280;40076;52.354;4.970;2024-03-17T11:01:54;102022.19;;;11.28;100.00
54172;BME280;40076;52.354;4.970;2024-03-17T11:04:21;102014.28;;;11.31;100.00
54172;BME280;40076;52.354;4.970;2024-03-17T11:06:49;102018.50;;;11.37;100.00
54172;BME280;40076;52.354;4.970;2024-03-17T11:09:16;102017.91;;;11.40;100.00
54172;BME280;40076;52.354;4.970;2024-03-17T11:11:41;102017.03;;;11.45;100.00
54172;BME280;40076;52.354;4.970;2024-03-17T11:14:19;102018.56;;;11.51;100.00
54172;BME280;40076;52.354;4.970;2024-03-17T11:16:45;102016.06;;;11.54;100.00
54172;BME280;40076;52.354;4.970;2024-03-17T11:19:16;102010.88;;;11.58;100.00
54172;BME280;40076;52.354;4.970;2024-03-17T11:21:42;102001.03;;;11.62;100.00
54172;BME280;40076;52.354;4.970;2024-03-17T11:24:19;102011.59;;;11.64;100.00
54172;BME280;40076;52.354;4.970;2024-03-17T11:26:45;102012.56;;;11.68;100.00
54172;BME280;40076;52.354;4.970;2024-03-17T11:29:30;102012.25;;;11.74;100.00
54172;BME280;40076;52.354;4.970;2024-03-17T11:31:57;102015.75;;;11.75;100.00
54172;BME280;40076;52.354;4.970;2024-03-17T11:34:34;102017.28;;;11.81;100.00
54172;BME280;40076;52.354;4.970;2024-03-17T11:37:01;102013.94;;;11.84;100.00
54172;BME280;40076;52.354;4.970;2024-03-17T11:39:48;102008.47;;;11.89;100.00
54172;BME280;40076;52.354;4.970;2024-03-17T11:42:24;102005.44;;;11.90;100.00
54172;BME280;40076;52.354;4.970;2024-03-17T11:47:23;102005.88;;;11.97;100.00
54172;BME280;40076;52.354;4.970;2024-03-17T11:49:51;102000.22;;;11.94;100.00
54172;BME280;40076;52.354;4.970;2024-03-17T11:52:16;101999.66;;;11.97;100.00
54172;BME280;40076;52.354;4.970;2024-03-17T11:54:46;102001.16;;;12.03;100.00
54172;BME280;40076;52.354;4.970;2024-03-17T11:57:23;101985.88;;;12.07;100.00
54172;BME280;40076;52.354;4.970;2024-03-17T11:59:49;101987.91;;;12.15;100.00
54172;BME280;40076;52.354;4.970;2024-03-17T12:02:20;101980.78;;;12.19;100.00
54172;BME280;40076;52.354;4.970;2024-03-17T12:04:46;101982.28;;;12.25;100.00
54172;BME280;40076;52.354;4.970;2024-03-17T12:07:15;101976.25;;;12.28;100.00
54172;BME280;40076;52.354;4.970;2024-03-17T12:09:42;101975.66;;;12.31;100.00
54172;BME280;40076;52.354;4.970;2024-03-17T12:12:16;101978.25;;;12.36;100.00
54172;BME280;40076;52.354;4.970;2024-03-17T12:14:42;101974.94;;;12.40;100.00
54172;BME280;40076;52.354;4.970;2024-03-17T12:17:09;101970.50;;;12.44;100.00
54172;BME280;40076;52.354;4.970;2024-03-17T12:19:35;101963.41;;;12.48;100.00
54172;BME280;40076;52.354;4.970;2024-03-17T12:22:02;101967.91;;;12.52;100.00
54172;BME280;40076;52.354;4.970;2024-03-17T12:24:30;101961.56;;;12.57;100.00
54172;BME280;40076;52.354;4.970;2024-03-17T12:26:57;101953.63;;;12.60;100.00
54172;BME280;40076;52.354;4.970;2024-03-17T12:29:29;101950.31;;;12.63;100.00
54172;BME280;40076;52.354;4.970;2024-03-17T12:31:57;101945.06;;;12.67;100.00
54172;BME280;40076;52.354;4.970;2024-03-17T12:34:25;101948.78;;;12.71;100.00
54172;BME280;40076;52.354;4.970;2024-03-17T12:36:52;101946.25;;;12.74;100.00
54172;BME280;40076;52.354;4.970;2024-03-17T12:47:24;101929.44;;;12.86;100.00
54172;BME280;40076;52.354;4.970;2024-03-17T12:49:54;101929.16;;;12.88;100.00
54172;BME280;40076;52.354;4.970;2024-03-17T12:52:27;101923.38;;;12.89;100.00
54172;BME280;40076;52.354;4.970;2024-03-17T12:55:09;101923.59;;;12.93;100.00
54172;BME280;40076;52.354;4.970;2024-03-17T13:00:56;101914.94;;;12.91;100.00
54172;BME280;40076;52.354;4.970;2024-03-17T13:03:27;101913.03;;;12.91;100.00
54172;BME280;40076;52.354;4.970;2024-03-17T13:05:54;101918.47;;;12.91;100.00
54172;BME280;40076;52.354;4.970;2024-03-17T13:08:19;101918.47;;;12.91;100.00